sensor_id;sensor_type;location;lat;lon;timestamp;pressure;altitude;pressure_sealevel;temperature;humidity
20755;BME280;26385;48.470;7.938;2022-10-16T00:01:22;99737.13;;;16.88;100.00
20755;BME280;26385;48.470;7.938;2022-10-16T00:03:48;99742.25;;;16.96;100.00
20755;BME280;26385;48.470;7.938;2022-10-16T00:06:16;99739.66;;;16.94;100.00
20755;BME280;26385;48.470;7.938;2022-10-16T00:08:42;99743.13;;;16.99;100.00
20755;BME280;26385;48.470;7.938;2022-10-16T00:11:17;99745.63;;;17.05;100.00
20755;BME280;26385;48.470;7.938;2022-10-16T00:13:44;99739.59;;;17.00;100.00
20755;BME280;26385;48.470;7.938;2022-10-16T00:16:11;99742.25;;;16.96;100.00
20755;BME280;26385;48.470;7.938;2022-10-16T00:18:37;99733.63;;;16.91;100.00
20755;BME280;26385;48.470;7.938;2022-10-16T00:21:29;99737.16;;;16.85;100.00
20755;BME280;26385;48.470;7.938;2022-10-16T00:23:58;99746.75;;;16.86;100.00
20755;BME280;26385;48.470;7.938;2022-10-16T00:26:25;99746.72;;;16.87;100.00
20755;BME280;26385;48.470;7.938;2022-10-16T00:28:51;99757.16;;;16.92;100.00
20755;BME280;26385;48.470;7.938;2022-10-16T00:31:18;99750.19;;;16.91;100.00
20755;BME280;26385;48.470;7.938;2022-10-16T00:33:44;99746.69;;;16.92;100.00
20755;BME280;26385;48.470;7.938;2022-10-16T00:36:13;99754.53;;;16.92;100.00
20755;BME280;26385;48.470;7.938;2022-10-16T00:38:39;99744.94;;;16.91;100.00
20755;BME280;26385;48.470;7.938;2022-10-16T00:41:06;99734.50;;;16.88;100.00
20755;BME280;26385;48.470;7.938;2022-10-16T00:43:35;99742.31;;;16.89;100.00
20755;BME280;26385;48.470;7.938;2022-10-16T00:46:02;99741.31;;;17.03;100.00
20755;BME280;26385;48.470;7.938;2022-10-16T00:48:28;99747.47;;;16.97;100.00
20755;BME280;26385;48.470;7.938;2022-10-16T00:50:54;99750.94;;;16.98;100.00
20755;BME280;26385;48.470;7.938;2022-10-16T00:53:19;99748.31;;;17.01;100.00
20755;BME280;26385;48.470;7.938;2022-10-16T00:55:45;99753.75;;;16.81;100.00
20755;BME280;26385;48.470;7.938;2022-10-16T00:58:11;99754.69;;;16.77;100.00
20755;BME280;26385;48.470;7.938;2022-10-16T01:00:36;99759.97;;;16.72;100.00
20755;BME280;26385;48.470;7.938;2022-10-16T01:03:03;99764.31;;;16.75;100.00
20755;BME280;26385;48.470;7.938;2022-10-16T01:05:40;99767.81;;;16.72;100.00
20755;BME280;26385;48.470;7.938;2022-10-16T01:08:15;99763.34;;;16.80;100.00
20755;BME280;26385;48.470;7.938;2022-10-16T01:10:57;99766.03;;;16.76;100.00
20755;BME280;26385;48.470;7.938;2022-10-16T01:13:29;99768.63;;;16.77;100.00
20755;BME280;26385;48.470;7.938;2022-10-16T01:18:39;99770.47;;;16.66;100.00
20755;BME280;26385;48.470;7.938;2022-10-16T01:21:10;99772.16;;;16.72;100.00
20755;BME280;26385;48.470;7.938;2022-10-16T01:26:48;99780.84;;;16.77;100.00
20755;BME280;26385;48.470;7.938;2022-10-16T01:29:21;99780.03;;;16.72;100.00
20755;BME280;26385;48.470;7.938;2022-10-16T01:31:56;99777.56;;;16.56;100.00
20755;BME280;26385;48.470;7.938;2022-10-16T01:34:31;99774.06;;;16.54;100.00
20755;BME280;26385;48.470;7.938;2022-10-16T01:37:11;99772.25;;;16.61;100.00
20755;BME280;26385;48.470;7.938;2022-10-16T01:39:38;99767.09;;;16.53;100.00
20755;BME280;26385;48.470;7.938;2022-10-16T01:42:10;99767.88;;;16.63;100.00
20755;BME280;26385;48.470;7.938;2022-10-16T01:44:37;99773.97;;;16.65;100.00
20755;BME280;26385;48.470;7.938;2022-10-16T01:47:04;99764.38;;;16.67;100.00
20755;BME280;26385;48.470;7.938;2022-10-16T01:49:33;99766.06;;;16.74;100.00
20755;BME280;26385;48.470;7.938;2022-10-16T01:52:02;99760.00;;;16.66;100.00
20755;BME280;26385;48.470;7.938;2022-10-16T01:54:31;99757.38;;;16.69;100.00
20755;BME280;26385;48.470;7.938;2022-10-16T01:56:58;99753.97;;;16.59;100.00
20755;BME280;26385;48.470;7.938;2022-10-16T01:59:25;99750.38;;;16.73;100.00
20755;BME280;26385;48.470;7.938;2022-10-16T02:01:56;99758.47;;;16.45;100.00
20755;BME280;26385;48.470;7.938;2022-10-16T02:04:37;99759.31;;;16.47;100.00
20755;BME280;26385;48.470;7.938;2022-10-16T02:07:03;99762.75;;;16.54;100.00
20755;BME280;26385;48.470;7.938;2022-10-16T02:09:30;99758.44;;;16.50;100.00
20755;BME280;26385;48.470;7.938;2022-10-16T02:11:59;99762.72;;;16.58;100.00
20755;BME280;26385;48.470;7.938;2022-10-16T02:14:40;99758.31;;;16.60;100.00
20755;BME280;26385;48.470;7.938;2022-10-16T02:17:14;99764.44;;;16.59;100.00
20755;BME280;26385;48.470;7.938;2022-10-16T02:19:40;99760.09;;;16.58;100.00
20755;BME280;26385;48.470;7.938;2022-10-16T02:22:10;99758.38;;;16.57;100.00
20755;BME280;26385;48.470;7.938;2022-10-16T02:24:56;99751.44;;;16.52;100.00
20755;BME280;26385;48.470;7.938;2022-10-16T02:30:15;99760.25;;;16.43;100.00
20755;BME280;26385;48.470;7.938;2022-10-16T02:32:46;99769.91;;;16.35;100.00
20755;BME280;26385;48.470;7.938;2022-10-16T02:35:13;99773.50;;;16.23;100.00
20755;BME280;26385;48.470;7.938;2022-10-16T02:37:40;99762.97;;;16.29;100.00
20755;BME280;26385;48.470;7.938;2022-10-16T02:40:07;99767.25;;;16.41;100.00
20755;BME280;26385;48.470;7.938;2022-10-16T02:42:35;99768.91;;;16.47;100.00
20755;BME280;26385;48.470;7.938;2022-10-16T02:45:00;99762.88;;;16.39;100.00
20755;BME280;26385;48.470;7.938;2022-10-16T02:47:26;99774.19;;;16.39;100.00
20755;BME280;26385;48.470;7.938;2022-10-16T02:49:52;99783.81;;;16.37;100.00
20755;BME280;26385;48.470;7.938;2022-10-16T02:52:18;99774.25;;;16.36;100.00
20755;BME280;26385;48.470;7.938;2022-10-16T02:54:43;99777.72;;;16.40;100.00
20755;BME280;26385;48.470;7.938;2022-10-16T02:57:08;99783.03;;;16.27;100.00
20755;BME280;26385;48.470;7.938;2022-10-16T02:59:33;99778.63;;;16.34;100.00
20755;BME280;26385;48.470;7.938;2022-10-16T03:01:59;99782.09;;;16.35;100.00
20755;BME280;26385;48.470;7.938;2022-10-16T03:04:24;99785.56;;;16.40;100.00
20755;BME280;26385;48.470;7.938;2022-10-16T03:06:49;99767.19;;;16.46;100.00
20755;BME280;26385;48.470;7.938;2022-10-16T03:09:14;99773.28;;;16.46;100.00
20755;BME280;26385;48.470;7.938;2022-10-16T03:11:40;99768.91;;;16.50;100.00
20755;BME280;26385;48.470;7.938;2022-10-16T03:14:05;99777.63;;;16.49;100.00
20755;BME280;26385;48.470;7.938;2022-10-16T03:16:30;99779.41;;;16.42;100.00
20755;BME280;26385;48.470;7.938;2022-10-16T03:18:56;99777.81;;;16.26;100.00
20755;BME280;26385;48.470;7.938;2022-10-16T03:21:21;99774.28;;;16.33;100.00
20755;BME280;26385;48.470;7.938;2022-10-16T03:23:46;99767.31;;;16.33;100.00
20755;BME280;26385;48.470;7.938;2022-10-16T03:26:11;99754.31;;;16.26;100.00
20755;BME280;26385;48.470;7.938;2022-10-16T03:28:37;99759.50;;;16.27;100.00
20755;BME280;26385;48.470;7.938;2022-10-16T03:31:02;99762.94;;;16.31;100.00
20755;BME280;26385;48.470;7.938;2022-10-16T03:33:27;99759.41;;;16.38;100.00
20755;BME280;26385;48.470;7.938;2022-10-16T03:35:54;99755.91;;;16.42;100.00
20755;BME280;26385;48.470;7.938;2022-10-16T03:38:19;99755.09;;;16.36;100.00
20755;BME280;26385;48.470;7.938;2022-10-16T03:40:45;99764.66;;;16.35;100.00
20755;BME280;26385;48.470;7.938;2022-10-16T03:43:10;99763.88;;;16.27;100.00
20755;BME280;26385;48.470;7.938;2022-10-16T03:45:35;99766.53;;;16.21;100.00
20755;BME280;26385;48.470;7.938;2022-10-16T03:48:00;99764.72;;;16.29;100.00
20755;BME280;26385;48.470;7.938;2022-10-16T03:50:27;99770.88;;;16.23;100.00
20755;BME280;26385;48.470;7.938;2022-10-16T03:52:52;99769.94;;;16.32;100.00
20755;BME280;26385;48.470;7.938;2022-10-16T03:55:18;99773.34;;;16.37;100.00
20755;BME280;26385;48.470;7.938;2022-10-16T03:57:43;99779.50;;;16.33;100.00
20755;BME280;26385;48.470;7.938;2022-10-16T04:00:09;99788.94;;;16.46;100.00
20755;BME280;26385;48.470;7.938;2022-10-16T04:02:34;99779.41;;;16.42;100.00
20755;BME280;26385;48.470;7.938;2022-10-16T04:05:00;99783.09;;;16.20;100.00
20755;BME280;26385;48.470;7.938;2022-10-16T04:07:25;99776.94;;;16.27;100.00
20755;BME280;26385;48.470;7.938;2022-10-16T04:09:50;99775.13;;;16.35;100.00
20755;BME280;26385;48.470;7.938;2022-10-16T04:12:17;99780.41;;;16.29;100.00
20755;BME280;26385;48.470;7.938;2022-10-16T04:14:42;99787.34;;;16.30;100.00
20755;BME280;26385;48.470;7.938;2022-10-16T04:17:07;99784.00;;;16.17;100.00
20755;BME280;26385;48.470;7.938;2022-10-16T04:19:33;99777.91;;;16.14;100.00
20755;BME280;26385;48.470;7.938;2022-10-16T04:21:58;99785.69;;;16.21;100.00
20755;BME280;26385;48.470;7.938;2022-10-16T04:24:23;99784.91;;;16.12;100.00
20755;BME280;26385;48.470;7.938;2022-10-16T04:26:48;99787.53;;;16.05;100.00
20755;BME280;26385;48.470;7.938;2022-10-16T04:29:14;99791.97;;;16.00;100.00
20755;BME280;26385;48.470;7.938;2022-10-16T04:31:39;99780.59;;;16.04;100.00
20755;BME280;26385;48.470;7.938;2022-10-16T04:34:04;99786.63;;;16.16;100.00
20755;BME280;26385;48.470;7.938;2022-10-16T04:36:30;99783.06;;;16.24;100.00
20755;BME280;26385;48.470;7.938;2022-10-16T04:38:56;99786.69;;;16.08;100.00
20755;BME280;26385;48.470;7.938;2022-10-16T04:41:21;99785.88;;;15.95;100.00
20755;BME280;26385;48.470;7.938;2022-10-16T04:43:46;99794.44;;;16.14;100.00
20755;BME280;26385;48.470;7.938;2022-10-16T04:46:12;99790.16;;;16.05;100.00
20755;BME280;26385;48.470;7.938;2022-10-16T04:48:38;99798.78;;;16.20;100.00
20755;BME280;26385;48.470;7.938;2022-10-16T04:51:03;99796.00;;;16.38;100.00
20755;BME280;26385;48.470;7.938;2022-10-16T04:53:28;99801.09;;;16.52;100.00
20755;BME280;26385;48.470;7.938;2022-10-16T04:55:53;99800.25;;;16.51;100.00
20755;BME280;26385;48.470;7.938;2022-10-16T04:58:19;99809.88;;;16.46;100.00
20755;BME280;26385;48.470;7.938;2022-10-16T05:00:45;99802.91;;;16.48;100.00
20755;BME280;26385;48.470;7.938;2022-10-16T05:03:11;99815.00;;;16.58;99.57
20755;BME280;26385;48.470;7.938;2022-10-16T05:05:36;99825.53;;;16.51;100.00
20755;BME280;26385;48.470;7.938;2022-10-16T05:08:06;99826.34;;;16.54;99.21
20755;BME280;26385;48.470;7.938;2022-10-16T05:10:32;99838.69;;;16.39;99.68
20755;BME280;26385;48.470;7.938;2022-10-16T05:12:57;99836.91;;;16.44;100.00
20755;BME280;26385;48.470;7.938;2022-10-16T05:15:22;99836.09;;;16.37;100.00
20755;BME280;26385;48.470;7.938;2022-10-16T05:17:52;99833.63;;;16.14;100.00
20755;BME280;26385;48.470;7.938;2022-10-16T05:20:17;99838.81;;;16.22;100.00
20755;BME280;26385;48.470;7.938;2022-10-16T05:22:43;99837.03;;;16.27;100.00
20755;BME280;26385;48.470;7.938;2022-10-16T05:25:08;99844.88;;;16.27;100.00
20755;BME280;26385;48.470;7.938;2022-10-16T05:27:33;99837.84;;;16.35;100.00
20755;BME280;26385;48.470;7.938;2022-10-16T05:29:58;99844.84;;;16.33;100.00
20755;BME280;26385;48.470;7.938;2022-10-16T05:32:24;99848.44;;;16.18;100.00
20755;BME280;26385;48.470;7.938;2022-10-16T05:34:50;99847.59;;;16.13;100.00
20755;BME280;26385;48.470;7.938;2022-10-16T05:37:16;99852.78;;;16.19;100.00
20755;BME280;26385;48.470;7.938;2022-10-16T05:39:41;99839.69;;;16.24;100.00
20755;BME280;26385;48.470;7.938;2022-10-16T05:42:07;99840.56;;;16.21;100.00
20755;BME280;26385;48.470;7.938;2022-10-16T05:44:32;99842.34;;;16.18;100.00
20755;BME280;26385;48.470;7.938;2022-10-16T05:46:58;99845.00;;;16.12;100.00
20755;BME280;26385;48.470;7.938;2022-10-16T05:49:23;99843.19;;;16.20;100.00
20755;BME280;26385;48.470;7.938;2022-10-16T05:51:48;99857.13;;;16.20;100.00
20755;BME280;26385;48.470;7.938;2022-10-16T05:54:14;99863.16;;;16.30;100.00
20755;BME280;26385;48.470;7.938;2022-10-16T05:56:39;99867.50;;;16.32;100.00
20755;BME280;26385;48.470;7.938;2022-10-16T05:59:05;99863.06;;;16.39;100.00
20755;BME280;26385;48.470;7.938;2022-10-16T06:01:30;99857.94;;;16.27;100.00
20755;BME280;26385;48.470;7.938;2022-10-16T06:03:56;99854.44;;;16.29;100.00
20755;BME280;26385;48.470;7.938;2022-10-16T06:06:24;99857.06;;;16.28;100.00
20755;BME280;26385;48.470;7.938;2022-10-16T06:08:51;99849.28;;;16.20;100.00
20755;BME280;26385;48.470;7.938;2022-10-16T06:11:22;99843.09;;;16.30;100.00
20755;BME280;26385;48.470;7.938;2022-10-16T06:13:53;99845.84;;;16.15;100.00
20755;BME280;26385;48.470;7.938;2022-10-16T06:16:19;99857.94;;;16.28;100.00
20755;BME280;26385;48.470;7.938;2022-10-16T06:18:44;99854.34;;;16.43;100.00
20755;BME280;26385;48.470;7.938;2022-10-16T06:21:18;99862.13;;;16.48;100.00
20755;BME280;26385;48.470;7.938;2022-10-16T06:23:44;99862.00;;;16.65;100.00
20755;BME280;26385;48.470;7.938;2022-10-16T06:26:12;99862.81;;;16.76;100.00
20755;BME280;26385;48.470;7.938;2022-10-16T06:28:38;99867.19;;;16.75;98.47
20755;BME280;26385;48.470;7.938;2022-10-16T06:31:05;99863.66;;;16.78;98.31
20755;BME280;26385;48.470;7.938;2022-10-16T06:33:31;99867.94;;;16.85;97.99
20755;BME280;26385;48.470;7.938;2022-10-16T06:36:03;99868.06;;;16.73;97.57
20755;BME280;26385;48.470;7.938;2022-10-16T06:38:29;99870.91;;;16.42;99.26
20755;BME280;26385;48.470;7.938;2022-10-16T06:40:55;99874.44;;;16.40;100.00
20755;BME280;26385;48.470;7.938;2022-10-16T06:43:20;99877.91;;;16.37;100.00
20755;BME280;26385;48.470;7.938;2022-10-16T06:45:55;99869.19;;;16.38;100.00
20755;BME280;26385;48.470;7.938;2022-10-16T06:48:21;99884.91;;;16.35;100.00
20755;BME280;26385;48.470;7.938;2022-10-16T06:51:00;99889.31;;;16.25;100.00
20755;BME280;26385;48.470;7.938;2022-10-16T06:53:28;99886.75;;;16.18;100.00
20755;BME280;26385;48.470;7.938;2022-10-16T06:55:54;99893.69;;;16.25;100.00
20755;BME280;26385;48.470;7.938;2022-10-16T06:58:19;99905.09;;;16.15;100.00
20755;BME280;26385;48.470;7.938;2022-10-16T07:00:45;99908.50;;;16.21;100.00
20755;BME280;26385;48.470;7.938;2022-10-16T07:03:10;99916.22;;;16.38;100.00
20755;BME280;26385;48.470;7.938;2022-10-16T07:05:40;99918.78;;;16.47;100.00
20755;BME280;26385;48.470;7.938;2022-10-16T07:08:06;99925.72;;;16.53;100.00
20755;BME280;26385;48.470;7.938;2022-10-16T07:10:32;99928.25;;;16.67;100.00
20755;BME280;26385;48.470;7.938;2022-10-16T07:12:58;99926.50;;;16.70;98.41
20755;BME280;26385;48.470;7.938;2022-10-16T07:15:24;99920.38;;;16.74;98.38
20755;BME280;26385;48.470;7.938;2022-10-16T07:17:50;99924.75;;;16.63;99.59
20755;BME280;26385;48.470;7.938;2022-10-16T07:20:15;99937.00;;;16.59;99.74
20755;BME280;26385;48.470;7.938;2022-10-16T07:22:41;99939.59;;;16.69;99.58
20755;BME280;26385;48.470;7.938;2022-10-16T07:25:06;99943.94;;;16.65;99.36
20755;BME280;26385;48.470;7.938;2022-10-16T07:27:32;99943.91;;;16.68;98.84
20755;BME280;26385;48.470;7.938;2022-10-16T07:29:57;99959.59;;;16.73;98.98
20755;BME280;26385;48.470;7.938;2022-10-16T07:32:22;99957.88;;;16.67;98.73
20755;BME280;26385;48.470;7.938;2022-10-16T07:34:48;99954.38;;;16.68;99.21
20755;BME280;26385;48.470;7.938;2022-10-16T07:37:13;99955.28;;;16.69;99.16
20755;BME280;26385;48.470;7.938;2022-10-16T07:39:39;99960.59;;;16.52;99.89
20755;BME280;26385;48.470;7.938;2022-10-16T07:42:04;99961.47;;;16.48;100.00
20755;BME280;26385;48.470;7.938;2022-10-16T07:44:29;99965.00;;;16.39;100.00
20755;BME280;26385;48.470;7.938;2022-10-16T07:46:55;99961.47;;;16.48;100.00
20755;BME280;26385;48.470;7.938;2022-10-16T07:49:20;99964.09;;;16.51;99.48
20755;BME280;26385;48.470;7.938;2022-10-16T07:51:45;99957.25;;;16.31;100.00
20755;BME280;26385;48.470;7.938;2022-10-16T07:54:11;99961.56;;;16.36;100.00
20755;BME280;26385;48.470;7.938;2022-10-16T07:56:36;99969.38;;;16.40;99.98
20755;BME280;26385;48.470;7.938;2022-10-16T07:59:01;99970.19;;;16.50;98.69
20755;BME280;26385;48.470;7.938;2022-10-16T08:01:27;99968.41;;;16.53;98.30
20755;BME280;26385;48.470;7.938;2022-10-16T08:03:52;99973.66;;;16.53;98.99
20755;BME280;26385;48.470;7.938;2022-10-16T08:06:20;99962.22;;;16.67;98.35
20755;BME280;26385;48.470;7.938;2022-10-16T08:08:45;99959.53;;;16.79;97.68
20755;BME280;26385;48.470;7.938;2022-10-16T08:11:11;99963.88;;;16.83;97.59
20755;BME280;26385;48.470;7.938;2022-10-16T08:13:36;99965.59;;;16.90;97.25
20755;BME280;26385;48.470;7.938;2022-10-16T08:16:02;99961.13;;;16.98;97.04
20755;BME280;26385;48.470;7.938;2022-10-16T08:18:32;99961.84;;;17.14;95.04
20755;BME280;26385;48.470;7.938;2022-10-16T08:20:59;99973.22;;;17.13;94.98
20755;BME280;26385;48.470;7.938;2022-10-16T08:23:25;99974.06;;;17.13;94.15
20755;BME280;26385;48.470;7.938;2022-10-16T08:25:53;99981.88;;;17.21;93.97
20755;BME280;26385;48.470;7.938;2022-10-16T08:28:19;99979.22;;;17.26;93.99
20755;BME280;26385;48.470;7.938;2022-10-16T08:30:44;99969.59;;;17.28;93.66
20755;BME280;26385;48.470;7.938;2022-10-16T08:33:09;99967.75;;;17.36;93.92
20755;BME280;26385;48.470;7.938;2022-10-16T08:35:35;99963.22;;;17.53;91.82
20755;BME280;26385;48.470;7.938;2022-10-16T08:38:03;99961.41;;;17.57;91.24
20755;BME280;26385;48.470;7.938;2022-10-16T08:40:31;99969.25;;;17.61;90.84
20755;BME280;26385;48.470;7.938;2022-10-16T08:48:46;99984.53;;;18.01;87.91
20755;BME280;26385;48.470;7.938;2022-10-16T08:51:22;99984.34;;;18.16;87.22
20755;BME280;26385;48.470;7.938;2022-10-16T08:53:53;99988.66;;;18.20;86.79
20755;BME280;26385;48.470;7.938;2022-10-16T08:56:19;99985.78;;;18.37;86.22
20755;BME280;26385;48.470;7.938;2022-10-16T08:58:46;99985.69;;;18.45;84.34
20755;BME280;26385;48.470;7.938;2022-10-16T09:01:14;99989.78;;;18.63;83.75
20755;BME280;26385;48.470;7.938;2022-10-16T09:06:56;99982.16;;;19.04;82.06
20755;BME280;26385;48.470;7.938;2022-10-16T09:09:38;99989.06;;;19.11;82.27
20755;BME280;26385;48.470;7.938;2022-10-16T09:12:39;99995.88;;;19.22;80.96
20755;BME280;26385;48.470;7.938;2022-10-16T09:23:45;100013.34;;;20.59;75.05
20755;BME280;26385;48.470;7.938;2022-10-16T09:26:13;100016.31;;;20.82;72.33
20755;BME280;26385;48.470;7.938;2022-10-16T09:28:39;100019.31;;;20.67;72.94
20755;BME280;26385;48.470;7.938;2022-10-16T09:31:05;100023.72;;;20.66;73.86
20755;BME280;26385;48.470;7.938;2022-10-16T09:33:35;100035.63;;;20.41;74.36
20755;BME280;26385;48.470;7.938;2022-10-16T09:36:03;100036.91;;;20.23;75.29
20755;BME280;26385;48.470;7.938;2022-10-16T09:38:32;100036.66;;;20.34;75.88
20755;BME280;26385;48.470;7.938;2022-10-16T09:40:59;100043.78;;;20.30;76.52
20755;BME280;26385;48.470;7.938;2022-10-16T09:43:57;100043.97;;;20.21;77.89
20755;BME280;26385;48.470;7.938;2022-10-16T09:46:33;100045.84;;;20.14;78.54
20755;BME280;26385;48.470;7.938;2022-10-16T09:49:04;100039.88;;;20.06;79.01
20755;BME280;26385;48.470;7.938;2022-10-16T09:51:33;100049.53;;;20.06;79.21
20755;BME280;26385;48.470;7.938;2022-10-16T09:56:36;100049.78;;;19.92;80.31
20755;BME280;26385;48.470;7.938;2022-10-16T09:59:12;100049.75;;;19.95;80.84
20755;BME280;26385;48.470;7.938;2022-10-16T10:01:41;100047.91;;;19.99;80.48
20755;BME280;26385;48.470;7.938;2022-10-16T10:04:07;100056.63;;;20.01;79.75
20755;BME280;26385;48.470;7.938;2022-10-16T10:06:35;100063.50;;;20.08;79.84
20755;BME280;26385;48.470;7.938;2022-10-16T10:09:21;100060.94;;;20.05;79.50
20755;BME280;26385;48.470;7.938;2022-10-16T10:15:12;100073.59;;;20.29;79.67
20755;BME280;26385;48.470;7.938;2022-10-16T10:17:50;100073.31;;;20.44;79.08
20755;BME280;26385;48.470;7.938;2022-10-16T10:20:23;100070.59;;;20.49;79.75
20755;BME280;26385;48.470;7.938;2022-10-16T10:22:49;100073.13;;;20.54;80.50
20755;BME280;26385;48.470;7.938;2022-10-16T10:25:42;100069.47;;;20.61;80.91
20755;BME280;26385;48.470;7.938;2022-10-16T10:28:30;100067.59;;;20.66;80.55
20755;BME280;26385;48.470;7.938;2022-10-16T10:34:17;100070.69;;;20.83;79.23
20755;BME280;26385;48.470;7.938;2022-10-16T10:36:56;100069.78;;;20.86;79.74
20755;BME280;26385;48.470;7.938;2022-10-16T10:39:35;100069.78;;;20.86;80.11
20755;BME280;26385;48.470;7.938;2022-10-16T10:42:26;100071.44;;;20.90;79.82
20755;BME280;26385;48.470;7.938;2022-10-16T10:44:59;100069.44;;;20.99;79.76
20755;BME280;26385;48.470;7.938;2022-10-16T10:47:58;100068.50;;;21.03;78.79
20755;BME280;26385;48.470;7.938;2022-10-16T10:50:41;100068.50;;;21.03;78.53
20755;BME280;26385;48.470;7.938;2022-10-16T10:53:18;100070.25;;;21.03;78.36
20755;BME280;26385;48.470;7.938;2022-10-16T10:56:00;100068.53;;;21.00;78.23
20755;BME280;26385;48.470;7.938;2022-10-16T11:04:33;100067.47;;;21.09;77.46
20755;BME280;26385;48.470;7.938;2022-10-16T11:07:05;100058.47;;;21.18;77.39
20755;BME280;26385;48.470;7.938;2022-10-16T11:09:41;100055.38;;;21.00;76.85
20755;BME280;26385;48.470;7.938;2022-10-16T11:12:30;100057.97;;;21.03;77.21
20755;BME280;26385;48.470;7.938;2022-10-16T11:15:03;100056.97;;;21.07;77.36
20755;BME280;26385;48.470;7.938;2022-10-16T11:17:42;100061.19;;;21.15;77.66
20755;BME280;26385;48.470;7.938;2022-10-16T11:20:20;100062.69;;;21.28;77.08
20755;BME280;26385;48.470;7.938;2022-10-16T11:22:51;100056.75;;;21.52;76.23
20755;BME280;26385;48.470;7.938;2022-10-16T11:25:31;100058.44;;;21.56;76.65
20755;BME280;26385;48.470;7.938;2022-10-16T11:28:24;100047.72;;;21.62;76.23
20755;BME280;26385;48.470;7.938;2022-10-16T11:30:54;100053.06;;;21.59;75.43
20755;BME280;26385;48.470;7.938;2022-10-16T11:36:07;100039.94;;;21.58;75.52
20755;BME280;26385;48.470;7.938;2022-10-16T11:39:03;100048.75;;;21.57;75.85
20755;BME280;26385;48.470;7.938;2022-10-16T11:41:36;100045.97;;;21.63;75.16
20755;BME280;26385;48.470;7.938;2022-10-16T11:44:34;100039.81;;;21.62;75.68
20755;BME280;26385;48.470;7.938;2022-10-16T11:49:31;100027.97;;;21.77;76.13
20755;BME280;26385;48.470;7.938;2022-10-16T11:52:37;100033.13;;;21.82;76.22
20755;BME280;26385;48.470;7.938;2022-10-16T11:55:14;100036.53;;;21.87;74.44
20755;BME280;26385;48.470;7.938;2022-10-16T11:57:48;100030.78;;;22.04;74.66
20755;BME280;26385;48.470;7.938;2022-10-16T12:00:28;100023.53;;;22.12;75.12
20755;BME280;26385;48.470;7.938;2022-10-16T12:08:34;100032.94;;;22.50;73.10
20755;BME280;26385;48.470;7.938;2022-10-16T12:13:52;100022.22;;;22.84;72.63
20755;BME280;26385;48.470;7.938;2022-10-16T12:16:28;100030.84;;;22.91;72.35
20755;BME280;26385;48.470;7.938;2022-10-16T12:19:14;100025.69;;;22.86;71.14
20755;BME280;26385;48.470;7.938;2022-10-16T12:21:40;100023.28;;;22.79;71.59
20755;BME280;26385;48.470;7.938;2022-10-16T12:26:48;100024.63;;;22.64;71.63
20755;BME280;26385;48.470;7.938;2022-10-16T12:31:48;100017.00;;;22.53;71.92
20755;BME280;26385;48.470;7.938;2022-10-16T12:34:43;100021.72;;;22.43;72.33
20755;BME280;26385;48.470;7.938;2022-10-16T12:37:21;100016.63;;;22.37;73.50
20755;BME280;26385;48.470;7.938;2022-10-16T12:39:48;100006.94;;;22.38;73.69
20755;BME280;26385;48.470;7.938;2022-10-16T12:42:33;100008.84;;;22.33;73.86
20755;BME280;26385;48.470;7.938;2022-10-16T12:45:00;100000.06;;;22.32;73.99
20755;BME280;26385;48.470;7.938;2022-10-16T12:49:58;99999.16;;;22.33;73.66
20755;BME280;26385;48.470;7.938;2022-10-16T12:52:34;100000.88;;;22.34;73.18
20755;BME280;26385;48.470;7.938;2022-10-16T12:55:00;100004.31;;;22.36;69.56
20755;BME280;26385;48.470;7.938;2022-10-16T13:00:13;99999.09;;;22.35;66.56
20755;BME280;26385;48.470;7.938;2022-10-16T13:09:18;99995.13;;;22.77;62.03
20755;BME280;26385;48.470;7.938;2022-10-16T13:11:58;99988.97;;;22.79;61.34
20755;BME280;26385;48.470;7.938;2022-10-16T13:25:42;99990.09;;;22.98;62.97
20755;BME280;26385;48.470;7.938;2022-10-16T13:28:10;99983.78;;;23.02;63.25
20755;BME280;26385;48.470;7.938;2022-10-16T13:30:41;99991.34;;;23.14;63.03
20755;BME280;26385;48.470;7.938;2022-10-16T13:33:15;99983.50;;;23.36;62.47
20755;BME280;26385;48.470;7.938;2022-10-16T13:35:56;99982.22;;;23.74;59.16
20755;BME280;26385;48.470;7.938;2022-10-16T13:38:26;99984.41;;;24.10;54.92
20755;BME280;26385;48.470;7.938;2022-10-16T13:40:55;99980.50;;;24.43;55.75
20755;BME280;26385;48.470;7.938;2022-10-16T13:43:46;99980.63;;;24.62;55.80
20755;BME280;26385;48.470;7.938;2022-10-16T13:46:15;99981.63;;;24.60;56.56
20755;BME280;26385;48.470;7.938;2022-10-16T13:48:41;99984.63;;;24.51;54.92
20755;BME280;26385;48.470;7.938;2022-10-16T13:51:15;99974.53;;;24.38;53.73
20755;BME280;26385;48.470;7.938;2022-10-16T13:53:41;99968.19;;;24.19;54.66
20755;BME280;26385;48.470;7.938;2022-10-16T13:56:10;99974.03;;;24.04;54.29
20755;BME280;26385;48.470;7.938;2022-10-16T13:58:36;99973.59;;;23.93;53.72
20755;BME280;26385;48.470;7.938;2022-10-16T14:01:04;99979.34;;;23.80;54.66
20755;BME280;26385;48.470;7.938;2022-10-16T14:03:31;99975.34;;;23.69;54.58
20755;BME280;26385;48.470;7.938;2022-10-16T14:05:59;99976.34;;;23.66;55.42
20755;BME280;26385;48.470;7.938;2022-10-16T14:08:26;99976.91;;;23.74;53.38
20755;BME280;26385;48.470;7.938;2022-10-16T14:10:55;99979.50;;;23.76;54.11
20755;BME280;26385;48.470;7.938;2022-10-16T14:13:39;99984.19;;;23.68;53.72
20755;BME280;26385;48.470;7.938;2022-10-16T14:16:15;99983.56;;;23.61;54.19
20755;BME280;26385;48.470;7.938;2022-10-16T14:18:41;99977.63;;;23.53;55.07
20755;BME280;26385;48.470;7.938;2022-10-16T14:21:13;99973.06;;;23.58;54.73
20755;BME280;26385;48.470;7.938;2022-10-16T14:23:40;99967.91;;;23.55;54.10
20755;BME280;26385;48.470;7.938;2022-10-16T14:26:13;99977.03;;;23.45;55.17
20755;BME280;26385;48.470;7.938;2022-10-16T14:28:40;99969.94;;;23.47;55.15